Time;durP1;ratioP1;P1;durP2;ratioP2;P2;SDS_P1;SDS_P2;PMS_P1;PMS_P2;Temp;Humidity;BMP_temperature;BMP_pressure;BME280_temperature;BME280_humidity;BME280_pressure;Samples;Min_cycle;Max_cycle;Signal;HPM_P1;HPM_P2
2023/12/31 00:00:53;;;;;;;1.30;1.20;;;4.90;97.30;;;;;;4973184;28;20186;-89
2023/12/31 00:03:19;;;;;;;1.10;1.00;;;4.80;97.30;;;;;;4974084;28;20197;-90
2023/12/31 00:05:44;;;;;;;1.40;1.30;;;4.70;97.30;;;;;;4971364;28;20230;-86
2023/12/31 00:08:11;;;;;;;1.10;1.00;;;4.60;97.30;;;;;;4974237;28;20930;-88
2023/12/31 00:10:39;;;;;;;1.60;1.50;;;4.50;97.30;;;;;;4981717;28;20181;-87
2023/12/31 00:13:04;;;;;;;1.13;1.03;;;4.40;97.30;;;;;;4975422;28;20956;-87
2023/12/31 00:15:30;;;;;;;1.23;1.23;;;4.40;97.30;;;;;;4991924;28;20418;-87
2023/12/31 00:17:55;;;;;;;2.50;2.30;;;4.40;97.30;;;;;;4975328;28;20217;-89
2023/12/31 00:20:21;;;;;;;1.20;1.10;;;4.40;97.30;;;;;;4989300;28;20194;-88
2023/12/31 00:22:46;;;;;;;1.33;1.23;;;4.50;97.30;;;;;;4981384;28;20189;-87
2023/12/31 00:25:12;;;;;;;1.10;1.00;;;4.40;97.30;;;;;;4981679;28;20189;-88
2023/12/31 00:27:38;;;;;;;2.63;1.10;;;4.50;97.30;;;;;;4991746;28;20207;-88
2023/12/31 00:30:05;;;;;;;1.17;1.17;;;4.50;97.30;;;;;;4991700;28;20198;-88
2023/12/31 00:32:30;;;;;;;2.37;2.17;;;4.60;97.30;;;;;;4991535;28;20995;-88
2023/12/31 00:34:56;;;;;;;1.00;0.90;;;4.60;97.30;;;;;;4991670;28;20410;-88
2023/12/31 00:37:21;;;;;;;1.10;1.00;;;4.70;97.30;;;;;;4991838;28;20181;-87
2023/12/31 00:39:47;;;;;;;1.33;1.30;;;4.70;97.30;;;;;;4991694;28;20843;-88
2023/12/31 00:42:12;;;;;;;1.47;1.37;;;4.70;97.30;;;;;;4975551;28;20202;-88
2023/12/31 00:44:37;;;;;;;1.47;1.37;;;4.60;97.30;;;;;;4991712;28;20241;-88
2023/12/31 00:47:03;;;;;;;1.30;1.20;;;4.60;97.30;;;;;;4991727;28;20193;-85
2023/12/31 00:49:29;;;;;;;1.10;1.00;;;4.60;97.30;;;;;;4991712;28;20198;-88
2023/12/31 00:51:54;;;;;;;1.00;0.90;;;4.70;97.30;;;;;;4991375;28;20174;-87
2023/12/31 00:54:19;;;;;;;1.07;0.97;;;4.70;97.30;;;;;;4975729;28;20179;-88
2023/12/31 00:56:45;;;;;;;1.00;0.90;;;4.70;97.30;;;;;;4975091;28;20181;-89
2023/12/31 00:59:10;;;;;;;1.20;1.10;;;4.70;97.30;;;;;;4990812;28;20206;-88
2023/12/31 01:01:36;;;;;;;1.33;1.23;;;4.80;97.30;;;;;;4997920;28;20724;-88
2023/12/31 01:04:01;;;;;;;2.23;2.03;;;4.80;97.30;;;;;;4991326;28;20185;-88
2023/12/31 01:06:27;;;;;;;1.10;1.00;;;4.80;97.30;;;;;;4991233;28;20265;-88
2023/12/31 01:08:54;;;;;;;5.93;1.23;;;4.80;97.30;;;;;;4981707;28;20222;-87
2023/12/31 01:11:20;;;;;;;1.20;1.10;;;4.80;97.30;;;;;;4974892;28;20269;-88
2023/12/31 01:13:46;;;;;;;1.57;1.20;;;4.80;97.30;;;;;;4990887;28;20438;-88
2023/12/31 01:16:11;;;;;;;1.00;0.90;;;4.80;97.30;;;;;;4990703;28;20418;-88
2023/12/31 01:18:37;;;;;;;3.03;2.80;;;4.70;97.30;;;;;;4991053;28;20589;-88
2023/12/31 01:21:03;;;;;;;1.00;0.90;;;4.70;97.30;;;;;;4974815;28;20213;-89
2023/12/31 01:23:28;;;;;;;1.77;1.60;;;4.70;97.30;;;;;;4973261;28;20663;-88
2023/12/31 01:25:54;;;;;;;1.23;1.13;;;4.70;97.30;;;;;;4988717;28;20182;-88
2023/12/31 01:28:19;;;;;;;1.50;1.43;;;4.70;97.30;;;;;;4988548;28;20257;-89
2023/12/31 01:30:45;;;;;;;1.77;1.67;;;4.80;97.30;;;;;;4988283;28;20185;-89
2023/12/31 01:33:10;;;;;;;1.83;1.73;;;4.80;97.30;;;;;;4975092;28;20179;-88
2023/12/31 01:35:36;;;;;;;1.23;1.13;;;4.80;97.30;;;;;;4974618;28;20187;-88
2023/12/31 01:38:01;;;;;;;1.20;1.10;;;4.70;97.30;;;;;;4976353;28;20284;-88
2023/12/31 01:40:27;;;;;;;1.00;0.90;;;4.70;97.30;;;;;;4971289;28;20300;-89
2023/12/31 01:42:52;;;;;;;1.10;1.00;;;4.70;97.30;;;;;;4972566;28;20179;-90
2023/12/31 01:45:18;;;;;;;1.03;0.93;;;4.60;97.30;;;;;;4972524;28;20206;-88
2023/12/31 01:47:44;;;;;;;1.20;1.10;;;4.70;97.30;;;;;;4972453;28;20249;-87
2023/12/31 01:50:12;;;;;;;2.03;1.57;;;4.60;97.30;;;;;;4972909;28;20213;-88
2023/12/31 01:52:39;;;;;;;1.00;0.90;;;4.60;97.30;;;;;;4972382;28;20647;-88
2023/12/31 01:55:06;;;;;;;1.97;1.87;;;4.60;97.30;;;;;;4972419;28;20457;-88
2023/12/31 01:57:33;;;;;;;1.73;1.63;;;4.60;97.30;;;;;;4972402;28;20453;-90
2023/12/31 02:00:00;;;;;;;1.30;1.20;;;4.60;97.30;;;;;;4972173;28;20994;-85
2023/12/31 02:02:26;;;;;;;1.50;1.40;;;4.60;97.30;;;;;;4972569;28;20428;-88
2023/12/31 02:04:52;;;;;;;0.93;0.83;;;4.60;97.30;;;;;;4972858;28;20437;-88
2023/12/31 02:07:18;;;;;;;1.23;1.00;;;4.60;97.30;;;;;;4972286;28;20465;-87
2023/12/31 02:09:44;;;;;;;1.20;1.10;;;4.60;97.30;;;;;;4972154;28;20298;-88
2023/12/31 02:12:09;;;;;;;1.00;0.90;;;4.60;97.30;;;;;;4972324;28;20513;-90
2023/12/31 02:14:35;;;;;;;1.10;1.00;;;4.60;97.30;;;;;;4971896;28;20414;-88
2023/12/31 02:17:01;;;;;;;3.80;2.10;;;4.60;97.30;;;;;;4995033;28;20422;-88
2023/12/31 02:19:26;;;;;;;1.20;1.10;;;4.60;97.30;;;;;;4986578;28;20591;-88
2023/12/31 02:21:52;;;;;;;3.63;1.53;;;4.60;97.30;;;;;;4985453;28;20588;-89
2023/12/31 02:24:20;;;;;;;1.30;1.20;;;4.60;97.30;;;;;;4990366;28;20274;-88
2023/12/31 02:26:46;;;;;;;1.20;1.10;;;4.60;97.30;;;;;;4986173;28;20819;-89
2023/12/31 02:29:11;;;;;;;1.00;0.90;;;4.60;97.30;;;;;;4985307;28;20465;-88
2023/12/31 02:31:37;;;;;;;1.00;0.90;;;4.60;97.30;;;;;;4995790;28;20228;-90
2023/12/31 02:34:03;;;;;;;2.70;1.57;;;4.50;97.30;;;;;;4980690;28;20587;-89
2023/12/31 02:36:28;;;;;;;0.90;0.80;;;4.60;97.30;;;;;;4979104;28;20186;-89
2023/12/31 02:38:54;;;;;;;1.33;1.23;;;4.60;97.30;;;;;;4995659;28;20276;-88
2023/12/31 02:41:19;;;;;;;1.33;1.23;;;4.60;97.30;;;;;;4985481;28;20688;-89
2023/12/31 02:43:45;;;;;;;1.00;0.90;;;4.60;97.30;;;;;;4995528;28;20174;-89
2023/12/31 02:46:10;;;;;;;0.90;0.80;;;4.60;97.30;;;;;;4979452;28;20214;-88
2023/12/31 02:48:36;;;;;;;1.10;1.00;;;4.60;97.30;;;;;;4973622;28;20231;-88
2023/12/31 02:51:01;;;;;;;5.23;2.93;;;4.60;97.30;;;;;;4985318;28;20265;-89
2023/12/31 02:53:27;;;;;;;1.13;1.03;;;4.60;97.30;;;;;;4975382;28;20269;-88
2023/12/31 02:55:52;;;;;;;1.10;1.00;;;4.60;97.30;;;;;;4975567;28;20175;-90
2023/12/31 02:58:18;;;;;;;1.20;1.10;;;4.50;97.30;;;;;;4975444;28;20186;-88
2023/12/31 03:00:43;;;;;;;1.00;0.90;;;4.50;97.30;;;;;;4976912;28;20286;-88
2023/12/31 03:03:09;;;;;;;2.13;1.33;;;4.50;97.30;;;;;;4971401;28;20607;-88
2023/12/31 03:05:34;;;;;;;2.93;2.30;;;4.50;97.30;;;;;;4977105;28;20265;-89
2023/12/31 03:08:00;;;;;;;1.00;0.90;;;4.50;97.30;;;;;;4976751;28;20309;-89
2023/12/31 03:10:27;;;;;;;1.10;1.00;;;4.60;97.30;;;;;;4982066;28;20261;-88
2023/12/31 03:12:53;;;;;;;1.27;1.17;;;4.60;97.30;;;;;;5005008;28;20232;-89
2023/12/31 03:15:19;;;;;;;0.90;0.80;;;4.60;97.30;;;;;;4977314;28;20405;-89
2023/12/31 03:17:45;;;;;;;1.10;1.00;;;4.60;97.30;;;;;;4977526;28;20708;-88
2023/12/31 03:20:11;;;;;;;1.00;0.90;;;4.60;97.30;;;;;;4984433;28;20530;-89
2023/12/31 03:22:36;;;;;;;8.90;1.70;;;4.70;97.30;;;;;;4986925;28;20175;-90
2023/12/31 03:25:02;;;;;;;1.63;1.40;;;4.70;97.30;;;;;;4998820;28;20178;-89
2023/12/31 03:27:28;;;;;;;1.00;0.90;;;4.80;97.30;;;;;;4993385;28;20211;-89
2023/12/31 03:29:53;;;;;;;1.10;1.00;;;4.90;97.30;;;;;;4998615;28;20440;-89
2023/12/31 03:32:19;;;;;;;1.00;0.90;;;4.90;97.30;;;;;;4985434;28;20644;-89
2023/12/31 03:34:44;;;;;;;0.90;0.80;;;4.90;97.30;;;;;;4991355;28;20248;-87
2023/12/31 03:37:10;;;;;;;1.10;1.00;;;5.00;97.30;;;;;;4977845;28;20389;-89
2023/12/31 03:39:35;;;;;;;0.90;0.80;;;5.00;97.30;;;;;;4991527;28;20240;-89
2023/12/31 03:42:01;;;;;;;1.07;0.97;;;5.00;97.30;;;;;;4982732;28;20202;-87
2023/12/31 03:44:26;;;;;;;1.20;1.10;;;5.00;97.30;;;;;;4976176;28;20261;-90
2023/12/31 03:46:52;;;;;;;1.00;0.90;;;5.00;97.30;;;;;;4987981;28;20296;-89
2023/12/31 03:49:17;;;;;;;1.00;0.90;;;4.90;97.30;;;;;;4979014;28;20723;-88
2023/12/31 03:51:43;;;;;;;1.00;0.90;;;4.90;97.30;;;;;;4986571;28;20181;-89
2023/12/31 03:54:09;;;;;;;0.90;0.80;;;4.90;97.30;;;;;;4985220;28;20648;-89
2023/12/31 03:56:34;;;;;;;0.90;0.80;;;4.80;97.30;;;;;;4982726;28;20174;-89
2023/12/31 03:59:00;;;;;;;12.63;1.33;;;4.80;97.30;;;;;;4977568;28;20238;-88
2023/12/31 04:01:25;;;;;;;1.20;1.10;;;4.70;97.30;;;;;;4985681;28;20182;-90
2023/12/31 04:03:51;;;;;;;1.10;1.00;;;4.60;97.30;;;;;;4982938;28;20196;-89
2023/12/31 04:06:16;;;;;;;1.20;1.10;;;4.50;97.30;;;;;;4976834;28;20186;-90
2023/12/31 04:08:41;;;;;;;1.07;0.97;;;4.50;97.30;;;;;;4995866;28;20709;-92
2023/12/31 04:11:07;;;;;;;0.90;0.80;;;4.40;97.30;;;;;;4981238;28;20205;-89
2023/12/31 04:13:32;;;;;;;4.40;1.40;;;4.30;97.30;;;;;;4979559;28;20236;-88
2023/12/31 04:15:58;;;;;;;1.00;0.90;;;4.30;97.30;;;;;;4976470;28;20195;-90
2023/12/31 04:18:24;;;;;;;0.90;0.80;;;4.30;97.30;;;;;;5030544;23;20241;-90
2023/12/31 04:20:49;;;;;;;2.67;1.10;;;4.30;97.30;;;;;;4976483;28;20284;-92
2023/12/31 04:23:15;;;;;;;0.90;0.80;;;4.30;97.30;;;;;;4991478;28;20646;-91
2023/12/31 04:25:40;;;;;;;1.00;0.90;;;4.30;97.30;;;;;;4992877;28;20175;-94
2023/12/31 04:28:06;;;;;;;7.00;1.20;;;4.30;97.30;;;;;;4976888;28;20210;-90
2023/12/31 04:30:32;;;;;;;1.00;0.90;;;4.30;97.30;;;;;;4975062;28;20178;-90
2023/12/31 04:32:57;;;;;;;1.10;1.00;;;4.30;97.30;;;;;;4974990;28;20649;-92
2023/12/31 04:35:26;;;;;;;1.27;1.17;;;4.30;97.30;;;;;;4986246;28;20182;-91
2023/12/31 04:37:52;;;;;;;4.73;1.10;;;4.40;97.30;;;;;;4979206;28;20322;-90
2023/12/31 04:40:17;;;;;;;1.00;0.90;;;4.40;97.30;;;;;;4974869;28;20902;-91
2023/12/31 04:42:43;;;;;;;1.07;0.97;;;4.40;97.30;;;;;;4975034;28;20631;-91
2023/12/31 04:45:09;;;;;;;1.00;0.90;;;4.40;97.30;;;;;;4976138;28;20213;-91
2023/12/31 04:47:36;;;;;;;1.57;1.47;;;4.40;97.30;;;;;;4975743;28;20217;-90
2023/12/31 04:50:01;;;;;;;1.50;1.40;;;4.50;97.30;;;;;;4975185;28;20458;-90
2023/12/31 04:52:27;;;;;;;1.63;1.53;;;4.50;97.30;;;;;;4974517;28;20418;-90
2023/12/31 04:54:53;;;;;;;1.10;1.00;;;4.50;97.30;;;;;;4974568;28;20570;-90
2023/12/31 04:57:18;;;;;;;1.17;1.07;;;4.60;97.30;;;;;;4974421;28;20203;-90
2023/12/31 04:59:44;;;;;;;1.00;0.90;;;4.60;97.30;;;;;;4974576;28;20183;-92
2023/12/31 05:02:09;;;;;;;1.00;0.90;;;4.60;97.30;;;;;;4974523;28;20177;-91
2023/12/31 05:04:35;;;;;;;1.10;1.00;;;4.60;97.30;;;;;;4975622;28;20175;-90
2023/12/31 05:07:02;;;;;;;1.00;0.90;;;4.70;97.30;;;;;;4974386;28;20186;-90
2023/12/31 05:09:28;;;;;;;1.10;1.00;;;4.70;97.30;;;;;;4974354;28;20190;-90
2023/12/31 05:11:54;;;;;;;1.10;1.00;;;4.70;97.30;;;;;;4974431;28;20429;-91
2023/12/31 05:14:20;;;;;;;1.10;1.00;;;4.70;97.30;;;;;;4974023;28;20206;-91
2023/12/31 05:16:46;;;;;;;2.07;1.93;;;4.70;97.30;;;;;;4973566;28;20918;-89
2023/12/31 05:19:12;;;;;;;1.43;1.10;;;4.70;97.30;;;;;;4974304;28;20185;-90
2023/12/31 05:21:40;;;;;;;1.00;0.90;;;4.60;97.30;;;;;;4974456;28;20178;-90
2023/12/31 05:24:07;;;;;;;1.00;0.90;;;4.60;97.30;;;;;;4974163;28;20178;-90
2023/12/31 05:26:32;;;;;;;0.90;0.80;;;4.60;97.30;;;;;;4975634;28;20480;-90
2023/12/31 05:28:58;;;;;;;1.00;0.90;;;4.50;97.30;;;;;;4974009;28;20991;-90
2023/12/31 05:31:24;;;;;;;0.90;0.80;;;4.40;97.30;;;;;;4974018;28;20178;-89
2023/12/31 05:33:49;;;;;;;1.33;1.23;;;4.30;97.30;;;;;;4971368;28;20237;-91
2023/12/31 05:36:15;;;;;;;1.03;0.93;;;4.30;97.30;;;;;;4971025;28;20422;-88
2023/12/31 05:38:41;;;;;;;1.03;0.93;;;4.20;97.30;;;;;;4977148;28;20260;-89
2023/12/31 05:41:07;;;;;;;1.00;0.90;;;4.20;97.30;;;;;;4972552;28;20641;-89
2023/12/31 05:43:33;;;;;;;3.40;2.40;;;4.20;97.30;;;;;;4979595;28;20265;-90
2023/12/31 05:46:00;;;;;;;1.00;0.90;;;4.30;97.30;;;;;;4973730;28;20293;-90
2023/12/31 05:48:26;;;;;;;1.37;1.27;;;4.30;97.30;;;;;;4973738;28;21014;-91
2023/12/31 05:50:52;;;;;;;1.10;1.00;;;4.20;97.30;;;;;;4973677;28;20426;-90
2023/12/31 05:53:17;;;;;;;1.53;1.40;;;4.20;97.30;;;;;;4974376;28;20229;-90
2023/12/31 05:55:44;;;;;;;1.10;1.00;;;4.20;97.30;;;;;;4973535;28;20178;-91
2023/12/31 05:58:09;;;;;;;6.20;1.90;;;4.20;97.30;;;;;;4973542;28;20225;-90
2023/12/31 06:00:35;;;;;;;1.10;1.00;;;4.20;97.30;;;;;;4973584;28;20524;-90
2023/12/31 06:03:03;;;;;;;1.00;0.90;;;4.20;97.30;;;;;;4973390;28;20182;-91
2023/12/31 06:05:29;;;;;;;1.97;1.87;;;4.20;97.30;;;;;;4973653;28;20190;-91
2023/12/31 06:10:41;;;;;;;1.00;0.90;;;4.20;97.30;;;;;;4989774;28;20226;-74
2023/12/31 06:13:07;;;;;;;2.00;1.73;;;4.20;97.30;;;;;;4968170;28;20442;-76
2023/12/31 06:15:32;;;;;;;1.10;1.00;;;4.20;97.30;;;;;;4969428;28;20174;-76
2023/12/31 06:17:59;;;;;;;1.00;0.90;;;4.20;97.30;;;;;;4968109;28;20186;-76
2023/12/31 06:20:24;;;;;;;1.10;1.00;;;4.20;97.30;;;;;;4979941;28;20646;-73
2023/12/31 06:22:50;;;;;;;1.00;0.90;;;4.20;97.30;;;;;;4973854;28;20422;-72
2023/12/31 06:25:15;;;;;;;2.00;1.67;;;4.20;97.30;;;;;;4967742;28;20194;-74
2023/12/31 06:27:41;;;;;;;1.20;1.10;;;4.20;97.30;;;;;;4979518;28;20214;-75
2023/12/31 06:30:07;;;;;;;1.50;1.40;;;4.30;97.30;;;;;;4971859;28;20353;-74
2023/12/31 06:32:33;;;;;;;1.10;1.00;;;4.30;97.30;;;;;;4971807;28;20174;-74
2023/12/31 06:34:58;;;;;;;1.30;1.20;;;4.30;97.30;;;;;;4971260;28;20427;-74
2023/12/31 06:37:24;;;;;;;0.97;0.87;;;4.40;97.30;;;;;;4972448;28;20185;-73
2023/12/31 06:39:50;;;;;;;1.13;1.03;;;4.40;97.30;;;;;;4973176;28;20209;-73
2023/12/31 06:42:16;;;;;;;1.00;0.90;;;4.40;97.30;;;;;;4987924;28;20213;-74
2023/12/31 06:44:42;;;;;;;1.00;0.90;;;4.40;97.30;;;;;;4970721;28;20426;-77
2023/12/31 06:47:07;;;;;;;1.10;1.00;;;4.40;97.30;;;;;;4980840;28;20265;-76
2023/12/31 06:49:33;;;;;;;1.00;0.90;;;4.40;97.30;;;;;;4971618;28;20214;-75
2023/12/31 06:52:00;;;;;;;1.00;0.90;;;4.40;97.30;;;;;;4986291;28;20264;-77
2023/12/31 06:54:26;;;;;;;1.00;0.90;;;4.40;97.30;;;;;;4971856;28;20179;-77
2023/12/31 06:56:52;;;;;;;1.10;1.00;;;4.40;97.30;;;;;;4968234;28;20458;-77
2023/12/31 06:59:17;;;;;;;1.30;1.20;;;4.30;97.30;;;;;;4971827;28;20476;-77
2023/12/31 07:01:43;;;;;;;1.33;1.30;;;4.30;97.30;;;;;;4978396;28;20202;-75
2023/12/31 07:04:08;;;;;;;2.23;2.03;;;4.40;97.30;;;;;;4976406;28;20543;-76
2023/12/31 07:06:34;;;;;;;0.90;0.80;;;4.40;97.30;;;;;;4972540;28;20186;-76
2023/12/31 07:08:59;;;;;;;1.10;1.00;;;4.40;97.30;;;;;;4972038;28;20226;-77
2023/12/31 07:11:25;;;;;;;1.10;1.00;;;4.40;97.30;;;;;;4977819;28;20201;-76
2023/12/31 07:13:50;;;;;;;1.13;1.03;;;4.40;97.30;;;;;;4987254;28;20178;-76
2023/12/31 07:16:16;;;;;;;1.10;1.00;;;4.40;97.30;;;;;;4972272;28;20223;-76
2023/12/31 07:18:42;;;;;;;1.13;1.03;;;4.50;97.30;;;;;;4979045;28;20186;-75
2023/12/31 07:21:08;;;;;;;1.27;1.17;;;4.50;97.30;;;;;;4976487;28;20301;-76
2023/12/31 07:23:33;;;;;;;1.10;1.00;;;4.50;97.30;;;;;;4970744;28;20524;-76
2023/12/31 07:25:59;;;;;;;1.30;1.20;;;4.50;97.30;;;;;;4970966;28;20673;-76
2023/12/31 07:28:24;;;;;;;1.10;1.00;;;4.50;97.30;;;;;;4970320;28;20545;-76
2023/12/31 07:30:50;;;;;;;1.20;1.10;;;4.50;97.30;;;;;;4976844;28;20202;-76
2023/12/31 07:33:15;;;;;;;1.00;0.90;;;4.50;97.30;;;;;;4987517;28;20186;-76
2023/12/31 07:35:41;;;;;;;1.00;0.90;;;4.50;97.30;;;;;;4982231;28;20209;-77
2023/12/31 07:38:08;;;;;;;0.90;0.80;;;4.50;97.30;;;;;;4971605;28;20186;-78
2023/12/31 07:40:34;;;;;;;1.93;1.87;;;4.50;97.30;;;;;;4967161;28;20223;-77
2023/12/31 07:42:59;;;;;;;1.37;1.27;;;4.50;97.30;;;;;;4959748;28;20957;-78
2023/12/31 07:45:25;;;;;;;1.33;1.27;;;4.50;97.30;;;;;;4968825;28;20224;-78
2023/12/31 07:47:53;;;;;;;1.20;1.10;;;4.60;97.30;;;;;;4967984;28;20205;-78
2023/12/31 07:50:19;;;;;;;1.93;1.83;;;4.60;97.30;;;;;;4969475;28;20201;-79
2023/12/31 07:52:44;;;;;;;1.13;1.03;;;4.60;97.30;;;;;;4997868;28;20429;-76
2023/12/31 07:55:10;;;;;;;1.10;1.00;;;4.60;97.30;;;;;;4968754;28;20418;-76
2023/12/31 07:57:36;;;;;;;1.30;1.20;;;4.60;97.30;;;;;;4966352;28;20273;-76
2023/12/31 08:00:07;;;;;;;1.27;1.17;;;4.60;97.30;;;;;;4967657;28;20276;-77
2023/12/31 08:02:32;;;;;;;1.00;0.90;;;4.60;97.30;;;;;;4959031;28;20445;-77
2023/12/31 08:04:58;;;;;;;1.47;1.37;;;4.70;97.30;;;;;;4967842;28;20904;-79
2023/12/31 08:07:23;;;;;;;1.73;1.63;;;4.70;97.30;;;;;;4985041;28;20223;-75
2023/12/31 08:09:49;;;;;;;1.27;1.17;;;4.70;97.30;;;;;;4977703;28;20604;-77
2023/12/31 08:12:15;;;;;;;1.20;1.10;;;4.70;97.30;;;;;;4969159;28;20695;-76
2023/12/31 08:14:40;;;;;;;1.40;1.30;;;4.80;97.30;;;;;;4969604;28;20264;-73
2023/12/31 08:17:06;;;;;;;1.27;1.17;;;4.80;97.30;;;;;;4969499;28;20443;-73
2023/12/31 08:19:32;;;;;;;1.60;1.50;;;4.80;97.30;;;;;;4993692;28;20442;-76
2023/12/31 08:21:57;;;;;;;1.63;1.53;;;4.90;97.30;;;;;;4976594;28;20607;-77
2023/12/31 08:24:23;;;;;;;1.93;1.83;;;4.90;97.30;;;;;;4970538;28;20194;-75
2023/12/31 08:26:48;;;;;;;1.13;1.03;;;5.00;97.30;;;;;;4985253;28;20225;-75
2023/12/31 08:29:14;;;;;;;1.00;0.90;;;5.00;97.30;;;;;;4967874;28;20210;-76
2023/12/31 08:31:40;;;;;;;1.20;1.10;;;5.00;97.30;;;;;;4985780;28;20285;-76
2023/12/31 08:34:06;;;;;;;1.10;1.00;;;5.10;97.30;;;;;;4969599;28;20986;-76
2023/12/31 08:36:31;;;;;;;1.20;1.10;;;5.10;97.30;;;;;;4971049;28;20265;-75
2023/12/31 08:38:57;;;;;;;1.00;1.00;;;5.20;97.30;;;;;;4985296;28;20182;-78
2023/12/31 08:41:22;;;;;;;1.30;1.20;;;5.20;97.30;;;;;;4985736;28;20430;-76
2023/12/31 08:43:48;;;;;;;1.10;1.00;;;5.30;97.30;;;;;;4970744;28;20262;-80
2023/12/31 08:46:14;;;;;;;4.60;2.70;;;5.30;97.30;;;;;;4985166;28;20204;-75
2023/12/31 08:48:39;;;;;;;0.90;0.80;;;5.40;97.30;;;;;;4984848;28;20682;-76
2023/12/31 08:51:05;;;;;;;1.00;0.90;;;5.40;97.30;;;;;;4970927;28;20555;-75
2023/12/31 08:53:31;;;;;;;1.03;0.93;;;5.50;97.30;;;;;;4985486;28;20646;-75
2023/12/31 08:55:58;;;;;;;1.10;1.00;;;5.60;97.30;;;;;;4985245;28;20217;-75
2023/12/31 08:58:23;;;;;;;1.57;1.47;;;5.60;97.30;;;;;;4969796;28;20425;-75
2023/12/31 09:00:49;;;;;;;1.10;1.10;;;5.70;97.30;;;;;;4984459;28;20515;-76
2023/12/31 09:03:15;;;;;;;2.03;1.20;;;5.80;97.30;;;;;;4985089;28;20186;-75
2023/12/31 09:05:40;;;;;;;1.10;1.00;;;5.80;97.30;;;;;;4983771;28;20431;-76
2023/12/31 09:08:06;;;;;;;1.57;1.47;;;5.90;97.30;;;;;;4969791;28;20389;-77
2023/12/31 09:10:31;;;;;;;3.57;1.33;;;6.00;97.30;;;;;;4970392;28;20596;-77
2023/12/31 09:12:57;;;;;;;4.03;2.13;;;6.00;97.30;;;;;;4967691;28;20185;-74
2023/12/31 09:15:23;;;;;;;1.20;1.10;;;6.10;97.30;;;;;;4967698;28;20183;-76
2023/12/31 09:17:48;;;;;;;1.10;1.00;;;6.10;97.30;;;;;;4984613;28;20732;-74
2023/12/31 09:20:14;;;;;;;1.10;1.00;;;6.20;97.30;;;;;;4970694;28;20193;-76
2023/12/31 09:22:39;;;;;;;2.40;2.10;;;6.30;97.30;;;;;;4970003;28;20183;-78
2023/12/31 09:25:08;;;;;;;1.10;1.00;;;6.30;97.30;;;;;;4967558;28;20190;-75
2023/12/31 09:27:34;;;;;;;1.40;1.30;;;6.40;97.30;;;;;;4961939;28;20663;-75
2023/12/31 09:30:00;;;;;;;0.97;0.87;;;6.40;97.30;;;;;;4952425;28;20426;-76
2023/12/31 09:32:25;;;;;;;1.00;0.90;;;6.50;97.30;;;;;;4967131;28;20476;-76
2023/12/31 09:34:51;;;;;;;5.03;3.33;;;6.60;97.30;;;;;;4970482;28;20229;-77
2023/12/31 09:37:19;;;;;;;1.30;1.20;;;6.60;97.30;;;;;;4968303;28;20672;-76
2023/12/31 09:39:48;;;;;;;1.13;1.03;;;6.70;97.30;;;;;;4970120;28;20257;-74
2023/12/31 09:42:17;;;;;;;1.00;0.90;;;6.80;97.30;;;;;;4968303;28;20468;-73
2023/12/31 09:44:44;;;;;;;1.20;1.10;;;6.80;97.30;;;;;;4969859;28;20944;-75
2023/12/31 09:47:11;;;;;;;5.90;4.70;;;6.90;97.30;;;;;;4968637;28;20914;-76
2023/12/31 09:49:38;;;;;;;8.37;5.13;;;7.10;97.30;;;;;;4967745;28;20466;-78
2023/12/31 09:52:07;;;;;;;3.10;2.90;;;7.10;97.30;;;;;;4958614;28;20521;-77
2023/12/31 09:54:33;;;;;;;1.83;1.80;;;7.20;97.30;;;;;;4950044;28;20438;-77
2023/12/31 09:56:59;;;;;;;1.37;1.27;;;7.30;97.30;;;;;;4956259;28;20504;-77
2023/12/31 09:59:26;;;;;;;1.23;1.13;;;7.40;97.30;;;;;;4960990;28;20426;-77
2023/12/31 10:01:56;;;;;;;1.07;0.97;;;7.50;97.30;;;;;;4958877;28;20458;-76
2023/12/31 10:04:22;;;;;;;3.73;1.33;;;7.50;97.30;;;;;;4968527;28;20879;-76
2023/12/31 10:06:50;;;;;;;2.30;1.87;;;7.60;97.30;;;;;;4960591;28;20892;-78
2023/12/31 10:09:18;;;;;;;2.70;2.27;;;7.70;97.30;;;;;;4978651;28;20880;-77
2023/12/31 10:11:44;;;;;;;1.60;1.50;;;7.70;97.30;;;;;;4970998;28;20528;-78
2023/12/31 10:14:11;;;;;;;1.33;1.23;;;7.80;97.30;;;;;;4986190;28;20496;-76
2023/12/31 10:19:11;;;;;;;1.07;1.00;;;7.90;97.30;;;;;;4965990;28;20480;-89
2023/12/31 10:21:37;;;;;;;1.00;0.90;;;7.90;97.30;;;;;;4974245;28;20414;-89
2023/12/31 10:24:03;;;;;;;6.83;1.53;;;7.90;97.30;;;;;;4970493;28;20423;-89
2023/12/31 10:26:28;;;;;;;1.73;1.27;;;7.90;97.30;;;;;;4978974;28;20179;-90
2023/12/31 10:28:54;;;;;;;1.87;1.20;;;8.00;97.30;;;;;;4971719;28;20301;-90
2023/12/31 10:31:21;;;;;;;1.67;1.57;;;8.00;97.30;;;;;;4975796;28;20241;-88
2023/12/31 10:33:46;;;;;;;3.90;2.50;;;7.90;97.30;;;;;;4979564;28;20265;-89
2023/12/31 10:36:12;;;;;;;2.30;2.10;;;7.90;97.30;;;;;;4989401;28;20951;-90
2023/12/31 10:38:47;;;;;;;1.07;0.97;;;8.00;97.30;;;;;;4974567;28;20252;-90
2023/12/31 10:41:24;;;;;;;2.60;1.83;;;8.00;97.30;;;;;;4985594;28;20269;-89
2023/12/31 10:43:50;;;;;;;1.47;1.37;;;8.00;97.30;;;;;;4973696;28;20800;-88
2023/12/31 10:46:18;;;;;;;2.20;2.00;;;8.00;97.30;;;;;;4976488;28;20512;-88
2023/12/31 10:48:58;;;;;;;1.20;1.10;;;8.10;97.30;;;;;;4986669;28;20469;-89
2023/12/31 10:51:23;;;;;;;1.20;1.10;;;8.10;97.30;;;;;;4994005;28;20528;-90
2023/12/31 10:53:51;;;;;;;1.00;0.90;;;8.20;97.30;;;;;;4986328;28;20505;-90
2023/12/31 10:56:18;;;;;;;1.20;1.10;;;8.20;97.30;;;;;;4983924;28;20287;-90
2023/12/31 10:58:45;;;;;;;1.53;1.43;;;8.20;97.30;;;;;;4983848;28;20465;-90
2023/12/31 11:01:11;;;;;;;1.77;1.67;;;8.20;97.30;;;;;;4970857;28;20417;-89
2023/12/31 11:03:38;;;;;;;1.20;1.10;;;8.20;97.30;;;;;;4992302;28;20928;-91
2023/12/31 11:06:05;;;;;;;1.77;1.47;;;8.20;97.30;;;;;;4985187;28;20430;-89
2023/12/31 11:08:31;;;;;;;1.23;1.20;;;8.20;97.30;;;;;;4976616;28;20607;-90
2023/12/31 11:10:57;;;;;;;1.37;1.30;;;8.10;97.30;;;;;;4969193;28;20500;-91
2023/12/31 11:13:25;;;;;;;1.63;1.10;;;8.10;97.30;;;;;;4970488;28;20561;-91
2023/12/31 11:15:53;;;;;;;1.00;0.90;;;8.10;97.30;;;;;;4980265;28;20196;-89
2023/12/31 11:18:43;;;;;;;1.27;1.17;;;8.10;97.30;;;;;;4976069;28;20465;-90
2023/12/31 11:21:47;;;;;;;1.20;1.10;;;8.00;97.30;;;;;;4985153;28;20453;-90
2023/12/31 11:24:16;;;;;;;1.13;1.03;;;8.00;97.30;;;;;;4974287;28;20425;-94
2023/12/31 11:26:42;;;;;;;2.13;0.97;;;8.00;97.30;;;;;;4970999;28;20867;-89
2023/12/31 11:29:10;;;;;;;1.00;0.90;;;8.00;97.30;;;;;;4974873;28;20473;-91
2023/12/31 11:31:42;;;;;;;1.37;1.27;;;8.00;97.30;;;;;;4966310;28;20591;-90
2023/12/31 11:34:09;;;;;;;1.20;1.10;;;8.10;97.30;;;;;;4973026;28;20495;-91
2023/12/31 11:36:35;;;;;;;2.13;2.00;;;8.10;97.30;;;;;;4972133;28;20492;-89
2023/12/31 11:39:04;;;;;;;0.93;0.83;;;8.10;97.30;;;;;;4974371;28;21042;-90
2023/12/31 11:41:39;;;;;;;1.37;1.27;;;8.20;97.30;;;;;;4973825;28;20433;-90
2023/12/31 11:44:04;;;;;;;2.77;1.50;;;8.20;97.30;;;;;;4973002;28;20433;-91
2023/12/31 11:46:32;;;;;;;6.20;1.40;;;8.30;97.30;;;;;;4973367;28;20444;-89
2023/12/31 11:48:58;;;;;;;2.37;2.17;;;8.30;97.30;;;;;;4967906;28;20215;-89
2023/12/31 11:51:27;;;;;;;1.27;1.17;;;8.30;97.30;;;;;;4969755;28;20798;-91
2023/12/31 11:53:53;;;;;;;2.00;1.90;;;8.40;97.30;;;;;;4973991;28;20527;-90
2023/12/31 11:56:19;;;;;;;1.53;1.37;;;8.40;97.30;;;;;;4970618;28;20426;-87
2023/12/31 11:58:46;;;;;;;1.30;1.20;;;8.40;97.30;;;;;;4974291;28;20468;-87
2023/12/31 12:01:11;;;;;;;1.30;1.20;;;8.50;97.30;;;;;;4971651;28;20432;-88
2023/12/31 12:03:38;;;;;;;1.00;0.90;;;8.50;97.30;;;;;;4973022;28;20513;-89
2023/12/31 12:06:04;;;;;;;1.53;1.47;;;8.50;97.30;;;;;;4973378;28;20430;-87
2023/12/31 12:08:30;;;;;;;1.23;1.13;;;8.50;97.30;;;;;;4971755;28;20683;-88
2023/12/31 12:10:56;;;;;;;1.50;1.40;;;8.60;97.30;;;;;;4972830;28;20645;-86
2023/12/31 12:13:21;;;;;;;1.60;1.30;;;8.60;97.30;;;;;;4964049;28;20175;-87
2023/12/31 12:15:47;;;;;;;3.70;2.03;;;8.70;97.30;;;;;;4973322;28;20627;-88
2023/12/31 12:18:18;;;;;;;1.40;1.30;;;8.70;97.30;;;;;;4974865;28;20851;-88
2023/12/31 12:20:45;;;;;;;1.10;1.00;;;8.70;97.30;;;;;;4969986;28;20182;-88
2023/12/31 12:23:10;;;;;;;1.30;1.20;;;8.70;97.30;;;;;;4971904;28;20429;-87
2023/12/31 12:25:36;;;;;;;1.00;0.90;;;8.70;97.30;;;;;;4964224;28;20426;-88
2023/12/31 12:28:05;;;;;;;1.20;1.10;;;8.70;97.30;;;;;;4971006;28;20215;-88
2023/12/31 12:30:30;;;;;;;1.23;1.13;;;8.80;97.30;;;;;;4972969;28;20802;-87
2023/12/31 12:32:58;;;;;;;1.30;0.93;;;8.80;97.30;;;;;;4972879;28;20513;-87
2023/12/31 12:35:27;;;;;;;1.63;1.53;;;8.80;97.30;;;;;;4973174;28;20179;-91
2023/12/31 12:37:53;;;;;;;2.07;1.93;;;8.80;97.30;;;;;;4989706;28;21051;-91
2023/12/31 12:40:19;;;;;;;1.03;0.93;;;8.90;97.30;;;;;;4988429;28;20521;-91
2023/12/31 12:42:46;;;;;;;1.00;0.90;;;8.90;97.30;;;;;;4973139;28;20188;-91
2023/12/31 12:45:12;;;;;;;2.40;1.30;;;8.90;97.30;;;;;;4978543;28;20861;-90
2023/12/31 12:47:40;;;;;;;1.77;1.67;;;8.90;97.30;;;;;;4969517;28;20454;-93
2023/12/31 12:50:06;;;;;;;1.20;1.10;;;8.90;97.30;;;;;;4968225;28;20492;-92
2023/12/31 12:52:31;;;;;;;1.50;1.40;;;8.90;97.30;;;;;;4971160;28;21020;-91
2023/12/31 12:54:57;;;;;;;1.37;1.27;;;8.90;97.30;;;;;;4973764;28;20178;-91
2023/12/31 12:57:22;;;;;;;0.90;0.80;;;8.90;97.30;;;;;;4971735;28;20399;-90